sensor_id;sensor_type;location;lat;lon;timestamp;P1;durP1;ratioP1;P2;durP2;ratioP2
48401;SDS011;65988;52.422;16.746;2022-12-20T00:04:18;0.90;;;0.90;;
48401;SDS011;65988;52.422;16.746;2022-12-20T00:09:54;0.80;;;0.80;;
48401;SDS011;65988;52.422;16.746;2022-12-20T00:12:42;0.90;;;0.90;;
48401;SDS011;65988;52.422;16.746;2022-12-20T00:15:15;0.70;;;0.70;;
48401;SDS011;65988;52.422;16.746;2022-12-20T00:18:00;0.85;;;0.85;;
48401;SDS011;65988;52.422;16.746;2022-12-20T00:23:22;0.73;;;0.73;;
48401;SDS011;65988;52.422;16.746;2022-12-20T00:26:04;0.70;;;0.70;;
48401;SDS011;65988;52.422;16.746;2022-12-20T00:28:46;1.00;;;1.00;;
48401;SDS011;65988;52.422;16.746;2022-12-20T00:36:56;0.92;;;0.92;;
48401;SDS011;65988;52.422;16.746;2022-12-20T00:42:39;0.90;;;0.90;;
48401;SDS011;65988;52.422;16.746;2022-12-20T00:47:42;0.70;;;0.70;;
48401;SDS011;65988;52.422;16.746;2022-12-20T00:50:16;0.80;;;0.80;;
48401;SDS011;65988;52.422;16.746;2022-12-20T00:53:10;0.90;;;0.90;;
48401;SDS011;65988;52.422;16.746;2022-12-20T00:58:41;0.70;;;0.70;;
48401;SDS011;65988;52.422;16.746;2022-12-20T01:01:40;0.80;;;0.80;;
48401;SDS011;65988;52.422;16.746;2022-12-20T01:04:29;0.90;;;0.90;;
48401;SDS011;65988;52.422;16.746;2022-12-20T01:07:18;0.77;;;0.77;;
48401;SDS011;65988;52.422;16.746;2022-12-20T01:10:33;1.00;;;1.00;;
48401;SDS011;65988;52.422;16.746;2022-12-20T01:13:15;0.80;;;0.80;;
48401;SDS011;65988;52.422;16.746;2022-12-20T01:16:44;0.70;;;0.70;;
48401;SDS011;65988;52.422;16.746;2022-12-20T01:22:29;0.63;;;0.63;;
48401;SDS011;65988;52.422;16.746;2022-12-20T01:25:03;0.80;;;0.80;;
48401;SDS011;65988;52.422;16.746;2022-12-20T01:30:27;0.87;;;0.87;;
48401;SDS011;65988;52.422;16.746;2022-12-20T01:33:25;0.80;;;0.80;;
48401;SDS011;65988;52.422;16.746;2022-12-20T01:39:31;0.80;;;0.80;;
48401;SDS011;65988;52.422;16.746;2022-12-20T01:42:04;0.80;;;0.80;;
48401;SDS011;65988;52.422;16.746;2022-12-20T01:50:06;0.80;;;0.80;;
48401;SDS011;65988;52.422;16.746;2022-12-20T01:53:27;0.70;;;0.70;;
48401;SDS011;65988;52.422;16.746;2022-12-20T01:56:03;0.80;;;0.80;;
48401;SDS011;65988;52.422;16.746;2022-12-20T02:01:44;0.78;;;0.78;;
48401;SDS011;65988;52.422;16.746;2022-12-20T02:06:56;0.80;;;0.80;;
48401;SDS011;65988;52.422;16.746;2022-12-20T02:09:31;0.70;;;0.70;;
48401;SDS011;65988;52.422;16.746;2022-12-20T02:12:23;0.97;;;0.97;;
48401;SDS011;65988;52.422;16.746;2022-12-20T02:24:23;0.80;;;0.80;;
48401;SDS011;65988;52.422;16.746;2022-12-20T02:33:11;0.80;;;0.80;;
48401;SDS011;65988;52.422;16.746;2022-12-20T02:36:10;0.70;;;0.70;;
48401;SDS011;65988;52.422;16.746;2022-12-20T02:53:45;0.80;;;0.80;;
48401;SDS011;65988;52.422;16.746;2022-12-20T02:56:12;0.97;;;0.97;;
48401;SDS011;65988;52.422;16.746;2022-12-20T02:59:25;0.80;;;0.80;;
48401;SDS011;65988;52.422;16.746;2022-12-20T03:02:23;0.80;;;0.80;;
48401;SDS011;65988;52.422;16.746;2022-12-20T03:08:19;0.90;;;0.90;;
48401;SDS011;65988;52.422;16.746;2022-12-20T03:11:14;0.90;;;0.90;;
48401;SDS011;65988;52.422;16.746;2022-12-20T03:17:34;0.80;;;0.80;;
48401;SDS011;65988;52.422;16.746;2022-12-20T03:22:58;0.70;;;0.70;;
48401;SDS011;65988;52.422;16.746;2022-12-20T03:28:09;0.80;;;0.80;;
48401;SDS011;65988;52.422;16.746;2022-12-20T03:30:55;0.63;;;0.63;;
48401;SDS011;65988;52.422;16.746;2022-12-20T03:36:01;0.80;;;0.80;;
48401;SDS011;65988;52.422;16.746;2022-12-20T03:38:29;0.80;;;0.80;;
48401;SDS011;65988;52.422;16.746;2022-12-20T03:41:13;0.80;;;0.80;;
48401;SDS011;65988;52.422;16.746;2022-12-20T03:43:58;0.80;;;0.80;;
48401;SDS011;65988;52.422;16.746;2022-12-20T03:46:52;0.70;;;0.70;;
48401;SDS011;65988;52.422;16.746;2022-12-20T03:49:50;0.80;;;0.80;;
48401;SDS011;65988;52.422;16.746;2022-12-20T03:52:34;0.70;;;0.70;;
48401;SDS011;65988;52.422;16.746;2022-12-20T03:55:07;0.70;;;0.70;;
48401;SDS011;65988;52.422;16.746;2022-12-20T03:57:54;0.70;;;0.70;;
48401;SDS011;65988;52.422;16.746;2022-12-20T04:00:26;0.80;;;0.80;;
48401;SDS011;65988;52.422;16.746;2022-12-20T04:02:53;0.73;;;0.73;;
48401;SDS011;65988;52.422;16.746;2022-12-20T04:05:33;0.77;;;0.77;;
48401;SDS011;65988;52.422;16.746;2022-12-20T04:10:44;0.70;;;0.70;;
48401;SDS011;65988;52.422;16.746;2022-12-20T04:13:32;0.90;;;0.90;;
48401;SDS011;65988;52.422;16.746;2022-12-20T04:18:57;0.60;;;0.60;;
48401;SDS011;65988;52.422;16.746;2022-12-20T04:21:46;0.70;;;0.70;;
48401;SDS011;65988;52.422;16.746;2022-12-20T04:24:21;0.70;;;0.70;;
48401;SDS011;65988;52.422;16.746;2022-12-20T04:26:50;0.70;;;0.70;;
48401;SDS011;65988;52.422;16.746;2022-12-20T04:29:18;0.60;;;0.60;;
48401;SDS011;65988;52.422;16.746;2022-12-20T04:31:49;0.70;;;0.70;;
48401;SDS011;65988;52.422;16.746;2022-12-20T04:36:52;0.60;;;0.60;;
48401;SDS011;65988;52.422;16.746;2022-12-20T04:39:24;0.80;;;0.80;;
48401;SDS011;65988;52.422;16.746;2022-12-20T04:41:55;0.80;;;0.80;;
48401;SDS011;65988;52.422;16.746;2022-12-20T04:44:42;0.77;;;0.77;;
48401;SDS011;65988;52.422;16.746;2022-12-20T04:47:14;0.80;;;0.80;;
48401;SDS011;65988;52.422;16.746;2022-12-20T04:49:54;0.80;;;0.80;;
48401;SDS011;65988;52.422;16.746;2022-12-20T04:52:31;0.77;;;0.77;;
48401;SDS011;65988;52.422;16.746;2022-12-20T04:55:42;0.60;;;0.60;;
48401;SDS011;65988;52.422;16.746;2022-12-20T04:58:14;0.85;;;0.85;;
48401;SDS011;65988;52.422;16.746;2022-12-20T05:00:46;0.83;;;0.83;;
48401;SDS011;65988;52.422;16.746;2022-12-20T05:05:42;0.90;;;0.90;;
48401;SDS011;65988;52.422;16.746;2022-12-20T05:08:11;0.60;;;0.60;;
48401;SDS011;65988;52.422;16.746;2022-12-20T05:10:39;0.60;;;0.60;;
48401;SDS011;65988;52.422;16.746;2022-12-20T05:13:06;0.70;;;0.70;;
48401;SDS011;65988;52.422;16.746;2022-12-20T05:15:38;0.70;;;0.70;;
48401;SDS011;65988;52.422;16.746;2022-12-20T05:18:13;0.75;;;0.75;;
48401;SDS011;65988;52.422;16.746;2022-12-20T05:21:09;0.83;;;0.83;;
48401;SDS011;65988;52.422;16.746;2022-12-20T05:24:03;0.90;;;0.90;;
48401;SDS011;65988;52.422;16.746;2022-12-20T05:26:50;0.73;;;0.73;;
48401;SDS011;65988;52.422;16.746;2022-12-20T05:29:40;0.70;;;0.70;;
48401;SDS011;65988;52.422;16.746;2022-12-20T05:32:09;0.87;;;0.87;;
48401;SDS011;65988;52.422;16.746;2022-12-20T05:34:50;0.70;;;0.70;;
48401;SDS011;65988;52.422;16.746;2022-12-20T05:37:26;0.83;;;0.83;;
48401;SDS011;65988;52.422;16.746;2022-12-20T05:40:13;0.90;;;0.90;;
48401;SDS011;65988;52.422;16.746;2022-12-20T05:42:45;1.03;;;1.03;;
48401;SDS011;65988;52.422;16.746;2022-12-20T05:45:35;0.80;;;0.80;;
48401;SDS011;65988;52.422;16.746;2022-12-20T05:48:07;0.70;;;0.70;;
48401;SDS011;65988;52.422;16.746;2022-12-20T05:50:36;0.90;;;0.90;;
48401;SDS011;65988;52.422;16.746;2022-12-20T05:53:15;0.70;;;0.70;;
48401;SDS011;65988;52.422;16.746;2022-12-20T05:55:48;0.83;;;0.83;;
48401;SDS011;65988;52.422;16.746;2022-12-20T06:01:02;0.80;;;0.80;;
48401;SDS011;65988;52.422;16.746;2022-12-20T06:03:37;0.90;;;0.90;;
48401;SDS011;65988;52.422;16.746;2022-12-20T06:06:04;0.80;;;0.80;;
48401;SDS011;65988;52.422;16.746;2022-12-20T06:08:31;0.73;;;0.73;;
48401;SDS011;65988;52.422;16.746;2022-12-20T06:11:26;0.90;;;0.90;;
48401;SDS011;65988;52.422;16.746;2022-12-20T06:16:36;0.80;;;0.80;;
48401;SDS011;65988;52.422;16.746;2022-12-20T06:19:07;0.90;;;0.90;;
48401;SDS011;65988;52.422;16.746;2022-12-20T06:21:33;0.80;;;0.80;;
48401;SDS011;65988;52.422;16.746;2022-12-20T06:24:11;0.70;;;0.70;;
48401;SDS011;65988;52.422;16.746;2022-12-20T06:26:39;0.90;;;0.90;;
48401;SDS011;65988;52.422;16.746;2022-12-20T06:29:13;0.73;;;0.73;;
48401;SDS011;65988;52.422;16.746;2022-12-20T06:31:41;0.70;;;0.70;;
48401;SDS011;65988;52.422;16.746;2022-12-20T06:34:09;0.80;;;0.80;;
48401;SDS011;65988;52.422;16.746;2022-12-20T06:36:34;0.70;;;0.70;;
48401;SDS011;65988;52.422;16.746;2022-12-20T06:39:08;0.85;;;0.85;;
48401;SDS011;65988;52.422;16.746;2022-12-20T06:41:39;0.60;;;0.60;;
48401;SDS011;65988;52.422;16.746;2022-12-20T06:44:18;0.60;;;0.60;;
48401;SDS011;65988;52.422;16.746;2022-12-20T06:46:44;0.80;;;0.80;;
48401;SDS011;65988;52.422;16.746;2022-12-20T06:49:15;0.60;;;0.60;;
48401;SDS011;65988;52.422;16.746;2022-12-20T06:54:28;0.70;;;0.70;;
48401;SDS011;65988;52.422;16.746;2022-12-20T06:57:18;0.70;;;0.70;;
48401;SDS011;65988;52.422;16.746;2022-12-20T06:59:52;0.80;;;0.80;;
48401;SDS011;65988;52.422;16.746;2022-12-20T07:05:17;0.80;;;0.80;;
48401;SDS011;65988;52.422;16.746;2022-12-20T07:07:50;0.80;;;0.80;;
48401;SDS011;65988;52.422;16.746;2022-12-20T07:10:38;0.80;;;0.80;;
48401;SDS011;65988;52.422;16.746;2022-12-20T07:13:38;0.68;;;0.68;;
48401;SDS011;65988;52.422;16.746;2022-12-20T07:18:42;0.60;;;0.60;;
48401;SDS011;65988;52.422;16.746;2022-12-20T07:24:18;0.70;;;0.70;;
48401;SDS011;65988;52.422;16.746;2022-12-20T07:27:03;0.70;;;0.70;;
48401;SDS011;65988;52.422;16.746;2022-12-20T07:29:57;0.70;;;0.70;;
48401;SDS011;65988;52.422;16.746;2022-12-20T07:32:28;0.80;;;0.80;;
48401;SDS011;65988;52.422;16.746;2022-12-20T07:34:59;0.73;;;0.73;;
48401;SDS011;65988;52.422;16.746;2022-12-20T07:39:54;0.60;;;0.60;;
48401;SDS011;65988;52.422;16.746;2022-12-20T07:42:26;0.50;;;0.50;;
48401;SDS011;65988;52.422;16.746;2022-12-20T07:44:56;0.80;;;0.80;;
48401;SDS011;65988;52.422;16.746;2022-12-20T07:50:16;0.60;;;0.60;;
48401;SDS011;65988;52.422;16.746;2022-12-20T07:52:54;0.60;;;0.60;;
48401;SDS011;65988;52.422;16.746;2022-12-20T07:55:31;0.77;;;0.77;;
48401;SDS011;65988;52.422;16.746;2022-12-20T07:58:07;0.82;;;0.82;;
48401;SDS011;65988;52.422;16.746;2022-12-20T08:00:46;0.80;;;0.80;;
48401;SDS011;65988;52.422;16.746;2022-12-20T08:03:22;0.83;;;0.83;;
48401;SDS011;65988;52.422;16.746;2022-12-20T08:05:58;0.73;;;0.73;;
48401;SDS011;65988;52.422;16.746;2022-12-20T08:08:48;0.73;;;0.73;;
48401;SDS011;65988;52.422;16.746;2022-12-20T08:11:19;0.70;;;0.70;;
48401;SDS011;65988;52.422;16.746;2022-12-20T08:13:51;0.70;;;0.70;;
48401;SDS011;65988;52.422;16.746;2022-12-20T08:16:17;0.50;;;0.50;;
48401;SDS011;65988;52.422;16.746;2022-12-20T08:18:46;0.53;;;0.53;;
48401;SDS011;65988;52.422;16.746;2022-12-20T08:21:12;0.70;;;0.70;;
48401;SDS011;65988;52.422;16.746;2022-12-20T08:23:43;0.70;;;0.70;;
48401;SDS011;65988;52.422;16.746;2022-12-20T08:26:10;0.70;;;0.70;;
48401;SDS011;65988;52.422;16.746;2022-12-20T08:28:36;0.70;;;0.70;;
48401;SDS011;65988;52.422;16.746;2022-12-20T08:31:02;0.60;;;0.60;;
48401;SDS011;65988;52.422;16.746;2022-12-20T08:33:30;0.70;;;0.70;;
48401;SDS011;65988;52.422;16.746;2022-12-20T08:35:59;0.70;;;0.70;;
48401;SDS011;65988;52.422;16.746;2022-12-20T08:38:35;0.60;;;0.60;;
48401;SDS011;65988;52.422;16.746;2022-12-20T08:41:23;0.80;;;0.80;;
48401;SDS011;65988;52.422;16.746;2022-12-20T08:44:09;0.70;;;0.70;;
48401;SDS011;65988;52.422;16.746;2022-12-20T08:46:51;0.40;;;0.40;;
48401;SDS011;65988;52.422;16.746;2022-12-20T08:49:32;0.80;;;0.80;;
48401;SDS011;65988;52.422;16.746;2022-12-20T08:52:00;0.70;;;0.70;;
48401;SDS011;65988;52.422;16.746;2022-12-20T08:54:28;0.90;;;0.90;;
48401;SDS011;65988;52.422;16.746;2022-12-20T08:56:58;0.80;;;0.80;;
48401;SDS011;65988;52.422;16.746;2022-12-20T08:59:39;0.60;;;0.60;;
48401;SDS011;65988;52.422;16.746;2022-12-20T09:02:08;0.70;;;0.70;;
48401;SDS011;65988;52.422;16.746;2022-12-20T09:04:35;0.40;;;0.40;;
48401;SDS011;65988;52.422;16.746;2022-12-20T09:07:08;0.52;;;0.52;;
48401;SDS011;65988;52.422;16.746;2022-12-20T09:09:34;0.55;;;0.55;;
48401;SDS011;65988;52.422;16.746;2022-12-20T09:15:05;0.60;;;0.60;;
48401;SDS011;65988;52.422;16.746;2022-12-20T09:17:58;0.60;;;0.60;;
48401;SDS011;65988;52.422;16.746;2022-12-20T09:20:52;0.50;;;0.50;;
48401;SDS011;65988;52.422;16.746;2022-12-20T09:23:28;0.55;;;0.55;;
48401;SDS011;65988;52.422;16.746;2022-12-20T09:26:07;0.60;;;0.60;;
48401;SDS011;65988;52.422;16.746;2022-12-20T09:28:53;0.60;;;0.60;;
48401;SDS011;65988;52.422;16.746;2022-12-20T09:31:21;0.57;;;0.57;;
48401;SDS011;65988;52.422;16.746;2022-12-20T09:34:09;0.47;;;0.47;;
48401;SDS011;65988;52.422;16.746;2022-12-20T09:37:28;0.50;;;0.50;;
48401;SDS011;65988;52.422;16.746;2022-12-20T09:40:02;0.63;;;0.63;;
48401;SDS011;65988;52.422;16.746;2022-12-20T09:43:04;0.60;;;0.60;;
48401;SDS011;65988;52.422;16.746;2022-12-20T09:45:55;0.50;;;0.50;;
48401;SDS011;65988;52.422;16.746;2022-12-20T09:48:33;0.43;;;0.43;;
48401;SDS011;65988;52.422;16.746;2022-12-20T10:00:34;0.30;;;0.30;;
48401;SDS011;65988;52.422;16.746;2022-12-20T10:05:59;0.30;;;0.30;;
48401;SDS011;65988;52.422;16.746;2022-12-20T10:09:01;0.30;;;0.30;;
48401;SDS011;65988;52.422;16.746;2022-12-20T10:14:44;0.30;;;0.30;;
48401;SDS011;65988;52.422;16.746;2022-12-20T10:23:04;0.28;;;0.28;;
48401;SDS011;65988;52.422;16.746;2022-12-20T10:25:55;0.30;;;0.30;;
48401;SDS011;65988;52.422;16.746;2022-12-20T10:28:29;0.30;;;0.30;;
48401;SDS011;65988;52.422;16.746;2022-12-20T10:33:57;0.30;;;0.30;;
48401;SDS011;65988;52.422;16.746;2022-12-20T10:36:32;0.30;;;0.30;;
48401;SDS011;65988;52.422;16.746;2022-12-20T10:39:19;0.40;;;0.40;;
48401;SDS011;65988;52.422;16.746;2022-12-20T10:45:59;0.45;;;0.45;;
48401;SDS011;65988;52.422;16.746;2022-12-20T10:48:46;0.30;;;0.30;;
48401;SDS011;65988;52.422;16.746;2022-12-20T10:51:50;0.40;;;0.40;;
48401;SDS011;65988;52.422;16.746;2022-12-20T10:54:23;0.30;;;0.30;;
48401;SDS011;65988;52.422;16.746;2022-12-20T10:57:13;0.32;;;0.32;;
48401;SDS011;65988;52.422;16.746;2022-12-20T11:00:06;0.30;;;0.30;;
48401;SDS011;65988;52.422;16.746;2022-12-20T11:03:03;0.40;;;0.40;;
48401;SDS011;65988;52.422;16.746;2022-12-20T11:05:37;0.32;;;0.32;;
48401;SDS011;65988;52.422;16.746;2022-12-20T11:08:17;0.40;;;0.40;;
48401;SDS011;65988;52.422;16.746;2022-12-20T11:10:52;0.38;;;0.38;;
48401;SDS011;65988;52.422;16.746;2022-12-20T11:13:57;0.40;;;0.40;;
48401;SDS011;65988;52.422;16.746;2022-12-20T11:16:43;0.30;;;0.30;;
48401;SDS011;65988;52.422;16.746;2022-12-20T11:22:17;0.30;;;0.30;;
48401;SDS011;65988;52.422;16.746;2022-12-20T11:31:19;0.40;;;0.40;;
48401;SDS011;65988;52.422;16.746;2022-12-20T11:45:39;0.30;;;0.30;;
48401;SDS011;65988;52.422;16.746;2022-12-20T11:57:06;0.30;;;0.30;;
48401;SDS011;65988;52.422;16.746;2022-12-20T11:59:50;0.30;;;0.30;;
48401;SDS011;65988;52.422;16.746;2022-12-20T12:02:43;0.30;;;0.30;;
48401;SDS011;65988;52.422;16.746;2022-12-20T12:11:39;0.30;;;0.30;;
48401;SDS011;65988;52.422;16.746;2022-12-20T12:14:27;0.20;;;0.20;;
48401;SDS011;65988;52.422;16.746;2022-12-20T12:20:39;0.30;;;0.30;;
48401;SDS011;65988;52.422;16.746;2022-12-20T12:28:51;0.30;;;0.30;;
48401;SDS011;65988;52.422;16.746;2022-12-20T12:50:31;0.40;;;0.40;;
48401;SDS011;65988;52.422;16.746;2022-12-20T13:13:21;0.30;;;0.30;;
48401;SDS011;65988;52.422;16.746;2022-12-20T13:15:49;0.35;;;0.35;;
48401;SDS011;65988;52.422;16.746;2022-12-20T13:18:34;0.40;;;0.40;;
48401;SDS011;65988;52.422;16.746;2022-12-20T13:30:31;0.30;;;0.30;;
48401;SDS011;65988;52.422;16.746;2022-12-20T13:33:22;0.25;;;0.25;;
48401;SDS011;65988;52.422;16.746;2022-12-20T13:36:38;0.40;;;0.40;;
48401;SDS011;65988;52.422;16.746;2022-12-20T13:39:38;0.30;;;0.30;;
48401;SDS011;65988;52.422;16.746;2022-12-20T13:42:33;0.40;;;0.40;;
48401;SDS011;65988;52.422;16.746;2022-12-20T13:45:10;0.40;;;0.40;;
48401;SDS011;65988;52.422;16.746;2022-12-20T13:48:05;0.30;;;0.30;;
48401;SDS011;65988;52.422;16.746;2022-12-20T13:50:50;0.30;;;0.30;;
48401;SDS011;65988;52.422;16.746;2022-12-20T13:53:26;0.40;;;0.40;;
48401;SDS011;65988;52.422;16.746;2022-12-20T14:02:35;0.43;;;0.43;;
48401;SDS011;65988;52.422;16.746;2022-12-20T14:05:22;0.50;;;0.50;;
48401;SDS011;65988;52.422;16.746;2022-12-20T14:08:06;0.40;;;0.40;;
48401;SDS011;65988;52.422;16.746;2022-12-20T14:13:55;0.50;;;0.50;;
48401;SDS011;65988;52.422;16.746;2022-12-20T14:25:42;0.50;;;0.50;;
48401;SDS011;65988;52.422;16.746;2022-12-20T14:28:36;0.50;;;0.50;;
48401;SDS011;65988;52.422;16.746;2022-12-20T14:31:24;0.50;;;0.50;;
48401;SDS011;65988;52.422;16.746;2022-12-20T14:36:41;0.68;;;0.68;;
48401;SDS011;65988;52.422;16.746;2022-12-20T14:44:43;0.50;;;0.50;;
48401;SDS011;65988;52.422;16.746;2022-12-20T14:47:17;0.60;;;0.60;;
48401;SDS011;65988;52.422;16.746;2022-12-20T14:50:21;0.50;;;0.50;;
48401;SDS011;65988;52.422;16.746;2022-12-20T14:56:55;0.50;;;0.50;;
48401;SDS011;65988;52.422;16.746;2022-12-20T14:59:42;0.47;;;0.47;;
48401;SDS011;65988;52.422;16.746;2022-12-20T15:02:36;0.50;;;0.50;;
48401;SDS011;65988;52.422;16.746;2022-12-20T15:08:30;0.50;;;0.50;;
48401;SDS011;65988;52.422;16.746;2022-12-20T15:17:13;0.50;;;0.50;;
48401;SDS011;65988;52.422;16.746;2022-12-20T15:19:42;0.60;;;0.60;;
48401;SDS011;65988;52.422;16.746;2022-12-20T15:22:35;0.50;;;0.50;;
48401;SDS011;65988;52.422;16.746;2022-12-20T15:25:24;0.55;;;0.55;;
48401;SDS011;65988;52.422;16.746;2022-12-20T15:27:56;0.45;;;0.45;;
48401;SDS011;65988;52.422;16.746;2022-12-20T15:30:44;0.60;;;0.60;;
48401;SDS011;65988;52.422;16.746;2022-12-20T15:36:12;0.30;;;0.30;;
48401;SDS011;65988;52.422;16.746;2022-12-20T15:39:08;0.38;;;0.38;;
48401;SDS011;65988;52.422;16.746;2022-12-20T15:41:46;0.50;;;0.50;;
48401;SDS011;65988;52.422;16.746;2022-12-20T15:44:27;0.40;;;0.40;;
48401;SDS011;65988;52.422;16.746;2022-12-20T15:47:02;0.50;;;0.50;;
48401;SDS011;65988;52.422;16.746;2022-12-20T15:49:59;0.40;;;0.40;;
48401;SDS011;65988;52.422;16.746;2022-12-20T15:53:07;0.50;;;0.50;;
48401;SDS011;65988;52.422;16.746;2022-12-20T15:56:03;0.40;;;0.40;;
48401;SDS011;65988;52.422;16.746;2022-12-20T15:59:15;0.50;;;0.50;;
48401;SDS011;65988;52.422;16.746;2022-12-20T16:01:48;0.50;;;0.50;;
48401;SDS011;65988;52.422;16.746;2022-12-20T16:07:07;0.40;;;0.40;;
48401;SDS011;65988;52.422;16.746;2022-12-20T16:09:42;0.40;;;0.40;;
48401;SDS011;65988;52.422;16.746;2022-12-20T16:12:41;0.45;;;0.45;;
48401;SDS011;65988;52.422;16.746;2022-12-20T16:15:20;0.40;;;0.40;;
48401;SDS011;65988;52.422;16.746;2022-12-20T16:17:58;0.50;;;0.50;;
48401;SDS011;65988;52.422;16.746;2022-12-20T16:20:26;0.40;;;0.40;;
48401;SDS011;65988;52.422;16.746;2022-12-20T16:22:59;0.50;;;0.50;;
48401;SDS011;65988;52.422;16.746;2022-12-20T16:25:33;0.50;;;0.50;;
48401;SDS011;65988;52.422;16.746;2022-12-20T16:28:09;0.50;;;0.50;;
48401;SDS011;65988;52.422;16.746;2022-12-20T16:31:27;0.50;;;0.50;;
48401;SDS011;65988;52.422;16.746;2022-12-20T16:34:00;0.50;;;0.50;;
48401;SDS011;65988;52.422;16.746;2022-12-20T16:36:52;0.50;;;0.50;;
48401;SDS011;65988;52.422;16.746;2022-12-20T16:41:58;0.65;;;0.65;;
48401;SDS011;65988;52.422;16.746;2022-12-20T16:44:39;0.60;;;0.60;;
48401;SDS011;65988;52.422;16.746;2022-12-20T16:50:13;0.55;;;0.55;;
48401;SDS011;65988;52.422;16.746;2022-12-20T16:52:40;0.40;;;0.40;;
48401;SDS011;65988;52.422;16.746;2022-12-20T16:55:45;0.50;;;0.50;;
48401;SDS011;65988;52.422;16.746;2022-12-20T16:58:26;0.55;;;0.55;;
48401;SDS011;65988;52.422;16.746;2022-12-20T17:01:01;0.50;;;0.50;;
48401;SDS011;65988;52.422;16.746;2022-12-20T17:03:26;0.50;;;0.50;;
48401;SDS011;65988;52.422;16.746;2022-12-20T17:06:13;0.70;;;0.70;;
48401;SDS011;65988;52.422;16.746;2022-12-20T17:11:29;0.50;;;0.50;;
48401;SDS011;65988;52.422;16.746;2022-12-20T17:13:57;0.68;;;0.68;;
48401;SDS011;65988;52.422;16.746;2022-12-20T17:17:01;0.40;;;0.40;;
48401;SDS011;65988;52.422;16.746;2022-12-20T17:19:38;0.65;;;0.65;;
48401;SDS011;65988;52.422;16.746;2022-12-20T17:22:09;0.40;;;0.40;;
48401;SDS011;65988;52.422;16.746;2022-12-20T17:27:41;0.50;;;0.50;;
48401;SDS011;65988;52.422;16.746;2022-12-20T17:30:24;0.50;;;0.50;;
48401;SDS011;65988;52.422;16.746;2022-12-20T17:32:53;0.50;;;0.50;;
48401;SDS011;65988;52.422;16.746;2022-12-20T17:35:27;0.50;;;0.50;;
48401;SDS011;65988;52.422;16.746;2022-12-20T17:38:02;0.47;;;0.47;;
48401;SDS011;65988;52.422;16.746;2022-12-20T17:40:34;0.65;;;0.65;;
48401;SDS011;65988;52.422;16.746;2022-12-20T17:43:17;0.70;;;0.70;;
48401;SDS011;65988;52.422;16.746;2022-12-20T17:45:42;0.52;;;0.52;;
48401;SDS011;65988;52.422;16.746;2022-12-20T17:48:15;0.50;;;0.50;;
48401;SDS011;65988;52.422;16.746;2022-12-20T17:51:15;0.50;;;0.50;;
48401;SDS011;65988;52.422;16.746;2022-12-20T17:54:10;0.70;;;0.70;;
48401;SDS011;65988;52.422;16.746;2022-12-20T17:56:51;0.40;;;0.40;;
48401;SDS011;65988;52.422;16.746;2022-12-20T17:59:21;0.70;;;0.70;;
48401;SDS011;65988;52.422;16.746;2022-12-20T18:07:54;0.60;;;0.60;;
48401;SDS011;65988;52.422;16.746;2022-12-20T18:10:20;0.60;;;0.60;;
48401;SDS011;65988;52.422;16.746;2022-12-20T18:12:55;0.40;;;0.40;;
48401;SDS011;65988;52.422;16.746;2022-12-20T18:15:23;0.50;;;0.50;;
48401;SDS011;65988;52.422;16.746;2022-12-20T18:17:53;0.50;;;0.50;;
48401;SDS011;65988;52.422;16.746;2022-12-20T18:20:19;0.50;;;0.50;;
48401;SDS011;65988;52.422;16.746;2022-12-20T18:22:46;0.40;;;0.40;;
48401;SDS011;65988;52.422;16.746;2022-12-20T18:25:15;0.40;;;0.40;;
48401;SDS011;65988;52.422;16.746;2022-12-20T18:28:00;0.50;;;0.50;;
48401;SDS011;65988;52.422;16.746;2022-12-20T18:30:35;0.52;;;0.52;;
48401;SDS011;65988;52.422;16.746;2022-12-20T18:33:12;0.52;;;0.52;;
48401;SDS011;65988;52.422;16.746;2022-12-20T18:35:58;0.40;;;0.40;;
48401;SDS011;65988;52.422;16.746;2022-12-20T18:38:47;0.30;;;0.30;;
48401;SDS011;65988;52.422;16.746;2022-12-20T18:42:08;0.40;;;0.40;;
48401;SDS011;65988;52.422;16.746;2022-12-20T18:44:15;0.50;;;0.50;;
48401;SDS011;65988;52.422;16.746;2022-12-20T18:46:53;0.50;;;0.50;;
48401;SDS011;65988;52.422;16.746;2022-12-20T18:49:26;0.40;;;0.40;;
48401;SDS011;65988;52.422;16.746;2022-12-20T18:51:54;0.40;;;0.40;;
48401;SDS011;65988;52.422;16.746;2022-12-20T18:54:25;0.50;;;0.50;;
48401;SDS011;65988;52.422;16.746;2022-12-20T18:56:57;0.50;;;0.50;;
48401;SDS011;65988;52.422;16.746;2022-12-20T18:59:28;0.50;;;0.50;;
48401;SDS011;65988;52.422;16.746;2022-12-20T19:02:11;0.50;;;0.50;;
48401;SDS011;65988;52.422;16.746;2022-12-20T19:04:43;0.50;;;0.50;;
48401;SDS011;65988;52.422;16.746;2022-12-20T19:09:40;0.50;;;0.50;;
48401;SDS011;65988;52.422;16.746;2022-12-20T19:12:14;0.52;;;0.52;;
48401;SDS011;65988;52.422;16.746;2022-12-20T19:14:42;0.40;;;0.40;;
48401;SDS011;65988;52.422;16.746;2022-12-20T19:17:10;0.52;;;0.52;;
48401;SDS011;65988;52.422;16.746;2022-12-20T19:19:49;0.40;;;0.40;;
48401;SDS011;65988;52.422;16.746;2022-12-20T19:25:09;0.40;;;0.40;;
48401;SDS011;65988;52.422;16.746;2022-12-20T19:27:46;0.40;;;0.40;;
48401;SDS011;65988;52.422;16.746;2022-12-20T19:30:18;0.40;;;0.40;;
48401;SDS011;65988;52.422;16.746;2022-12-20T19:32:52;0.52;;;0.52;;
48401;SDS011;65988;52.422;16.746;2022-12-20T19:35:49;0.50;;;0.50;;
48401;SDS011;65988;52.422;16.746;2022-12-20T19:38:43;0.50;;;0.50;;
48401;SDS011;65988;52.422;16.746;2022-12-20T19:41:28;0.50;;;0.50;;
48401;SDS011;65988;52.422;16.746;2022-12-20T19:44:06;0.40;;;0.40;;
48401;SDS011;65988;52.422;16.746;2022-12-20T19:47:18;0.47;;;0.47;;
48401;SDS011;65988;52.422;16.746;2022-12-20T19:52:08;0.58;;;0.58;;
48401;SDS011;65988;52.422;16.746;2022-12-20T19:54:37;0.40;;;0.40;;
48401;SDS011;65988;52.422;16.746;2022-12-20T19:57:19;0.50;;;0.50;;
48401;SDS011;65988;52.422;16.746;2022-12-20T20:05:09;0.50;;;0.50;;
48401;SDS011;65988;52.422;16.746;2022-12-20T20:08:06;0.50;;;0.50;;
48401;SDS011;65988;52.422;16.746;2022-12-20T20:10:44;0.60;;;0.60;;
48401;SDS011;65988;52.422;16.746;2022-12-20T20:13:21;0.50;;;0.50;;
48401;SDS011;65988;52.422;16.746;2022-12-20T20:15:55;0.50;;;0.50;;
48401;SDS011;65988;52.422;16.746;2022-12-20T20:18:29;0.55;;;0.55;;
48401;SDS011;65988;52.422;16.746;2022-12-20T20:21:10;0.52;;;0.52;;
48401;SDS011;65988;52.422;16.746;2022-12-20T20:23:44;0.50;;;0.50;;
48401;SDS011;65988;52.422;16.746;2022-12-20T20:26:23;0.60;;;0.60;;
48401;SDS011;65988;52.422;16.746;2022-12-20T20:29:23;0.40;;;0.40;;
48401;SDS011;65988;52.422;16.746;2022-12-20T20:32:17;0.50;;;0.50;;
48401;SDS011;65988;52.422;16.746;2022-12-20T20:34:52;0.57;;;0.57;;
48401;SDS011;65988;52.422;16.746;2022-12-20T20:37:31;0.70;;;0.70;;
48401;SDS011;65988;52.422;16.746;2022-12-20T20:43:38;0.52;;;0.52;;
48401;SDS011;65988;52.422;16.746;2022-12-20T20:46:17;0.50;;;0.50;;
48401;SDS011;65988;52.422;16.746;2022-12-20T20:48:54;0.68;;;0.68;;
48401;SDS011;65988;52.422;16.746;2022-12-20T20:51:19;0.60;;;0.60;;
48401;SDS011;65988;52.422;16.746;2022-12-20T20:53:51;0.60;;;0.60;;
48401;SDS011;65988;52.422;16.746;2022-12-20T20:56:35;0.60;;;0.60;;
48401;SDS011;65988;52.422;16.746;2022-12-20T20:59:23;0.70;;;0.70;;
48401;SDS011;65988;52.422;16.746;2022-12-20T21:01:59;0.55;;;0.55;;
48401;SDS011;65988;52.422;16.746;2022-12-20T21:04:40;0.55;;;0.55;;
48401;SDS011;65988;52.422;16.746;2022-12-20T21:07:11;0.60;;;0.60;;
48401;SDS011;65988;52.422;16.746;2022-12-20T21:10:11;0.50;;;0.50;;
48401;SDS011;65988;52.422;16.746;2022-12-20T21:13:09;0.43;;;0.43;;